Time;durP1;ratioP1;P1;durP2;ratioP2;P2;SDS_P1;SDS_P2;PMS_P1;PMS_P2;Temp;Humidity;BMP_temperature;BMP_pressure;BME280_temperature;BME280_humidity;BME280_pressure;Samples;Min_cycle;Max_cycle;Signal;HPM_P1;HPM_P2
2021/03/27 00:01:03;;;;;;;74.50;36.93;;;;;;;1.94;100.00;100705.69;5019396;28;20052;-87
2021/03/27 00:03:37;;;;;;;82.93;37.97;;;;;;;1.97;100.00;100699.63;5002763;28;20140;-87
2021/03/27 00:06:13;;;;;;;82.27;43.00;;;;;;;2.02;100.00;100698.00;5034808;28;20473;-87
2021/03/27 00:08:52;;;;;;;89.57;40.53;;;;;;;2.00;100.00;100691.84;5002601;28;20049;-87
2021/03/27 00:12:03;;;;;;;80.97;37.10;;;;;;;1.98;100.00;100693.56;4986591;28;20219;-87
2021/03/27 00:15:09;;;;;;;70.77;34.63;;;;;;;1.90;100.00;100692.59;5030806;28;20049;-88
2021/03/27 00:17:46;;;;;;;76.40;37.87;;;;;;;1.87;100.00;100683.00;5024188;28;20076;-89
2021/03/27 00:20:48;;;;;;;78.70;37.77;;;;;;;2.03;100.00;100678.91;5003395;28;20573;-89
2021/03/27 00:23:34;;;;;;;97.37;45.37;;;;;;;1.95;100.00;100678.78;4984746;28;20046;-88
2021/03/27 00:26:07;;;;;;;97.60;41.37;;;;;;;1.99;100.00;100674.47;5001304;28;20053;-90
2021/03/27 00:28:44;;;;;;;106.88;45.00;;;;;;;1.98;100.00;100668.41;5001106;28;20054;-88
2021/03/27 00:31:26;;;;;;;103.63;47.83;;;;;;;2.02;100.00;100660.59;5000990;28;20052;-87
2021/03/27 00:34:18;;;;;;;113.07;50.13;;;;;;;2.10;100.00;100661.59;5016094;28;20130;-88
2021/03/27 00:37:00;;;;;;;88.63;41.83;;;;;;;2.04;100.00;100646.78;4985794;28;20045;-90
2021/03/27 00:39:53;;;;;;;94.53;43.07;;;;;;;2.03;100.00;100644.16;5002096;28;20136;-87
2021/03/27 00:42:32;;;;;;;93.17;45.17;;;;;;;2.01;100.00;100649.31;5017146;28;20041;-87
2021/03/27 00:49:06;;;;;;;88.83;40.83;;;;;;;1.96;100.00;100643.19;5015696;28;20123;-88
2021/03/27 00:51:44;;;;;;;123.67;53.23;;;;;;;2.19;100.00;100633.94;4985033;28;20124;-87
2021/03/27 00:54:27;;;;;;;112.63;50.47;;;;;;;2.19;100.00;100631.34;4985621;28;20045;-87
2021/03/27 00:57:34;;;;;;;85.43;42.97;;;;;;;2.12;100.00;100631.25;5003448;28;20049;-88
2021/03/27 01:04:13;;;;;;;99.30;47.43;;;;;;;2.02;100.00;100613.72;5033356;28;20050;-87
2021/03/27 01:11:07;;;;;;;93.57;45.57;;;;;;;1.97;100.00;100596.28;5034927;28;20426;-87
2021/03/27 01:14:40;;;;;;;89.93;44.77;;;;;;;1.99;100.00;100596.31;4987977;28;20045;-87
2021/03/27 01:17:17;;;;;;;95.93;46.35;;;;;;;2.07;100.00;100596.41;5000495;28;20138;-87
2021/03/27 01:20:26;;;;;;;88.47;43.60;;;;;;;2.08;100.00;100590.34;4987847;28;20059;-88
2021/03/27 01:27:05;;;;;;;97.27;43.73;;;;;;;2.09;100.00;100579.94;5017309;28;20398;-87
2021/03/27 01:30:00;;;;;;;95.97;45.97;;;;;;;2.09;100.00;100574.72;5000954;28;20111;-87
2021/03/27 01:32:41;;;;;;;96.70;44.23;;;;;;;2.06;100.00;100574.69;4985015;28;20045;-87
2021/03/27 01:36:02;;;;;;;112.23;48.23;;;;;;;2.19;100.00;100570.53;4984514;28;20050;-88
2021/03/27 01:41:58;;;;;;;91.33;43.50;;;;;;;2.14;100.00;100565.25;5002969;28;20037;-87
2021/03/27 01:45:00;;;;;;;90.70;42.43;;;;;;;2.10;100.00;100560.88;4985054;28;20487;-88
2021/03/27 01:47:49;;;;;;;87.03;40.27;;;;;;;2.01;100.00;100557.25;4986503;28;20515;-89
2021/03/27 01:50:52;;;;;;;92.83;44.70;;;;;;;2.03;100.00;100550.34;4984878;28;20038;-87
2021/03/27 01:53:53;;;;;;;;;;;;;;;;;;;;;
2021/03/27 01:56:59;;;;;;;97.03;45.87;;;;;;;2.18;100.00;100548.75;5001524;28;20068;-88
2021/03/27 01:59:32;;;;;;;89.27;43.97;;;;;;;2.14;100.00;100541.78;5000058;28;20391;-88
2021/03/27 02:02:54;;;;;;;98.83;43.87;;;;;;;2.15;100.00;100538.31;4985554;28;20293;-88
2021/03/27 02:05:33;;;;;;;91.60;44.30;;;;;;;2.16;100.00;100544.41;4986339;28;20053;-87
2021/03/27 02:08:27;;;;;;;87.60;43.07;;;;;;;2.14;100.00;100536.56;4999027;28;20179;-89
2021/03/27 02:11:17;;;;;;;91.93;40.83;;;;;;;2.09;100.00;100532.16;5016072;28;20041;-87
2021/03/27 02:14:04;;;;;;;;;;;;;;;;;;;;;
2021/03/27 02:17:03;;;;;;;96.70;44.33;;;;;;;2.07;100.00;100523.44;5001711;28;20052;-87
2021/03/27 02:20:16;;;;;;;91.47;42.67;;;;;;;2.06;100.00;100527.78;4987011;28;20050;-87
2021/03/27 02:23:06;;;;;;;105.17;48.20;;;;;;;2.09;100.00;100527.81;4998963;28;20051;-87
2021/03/27 02:29:32;;;;;;;86.47;43.27;;;;;;;2.04;100.00;100518.22;5015311;28;20132;-88
2021/03/27 02:32:41;;;;;;;89.07;43.77;;;;;;;2.04;100.00;100513.88;5015481;28;20105;-87
2021/03/27 02:35:39;;;;;;;96.63;44.93;;;;;;;2.00;100.00;100509.47;4988118;28;20046;-87
2021/03/27 02:38:43;;;;;;;88.80;42.60;;;;;;;2.01;100.00;100507.72;4986069;28;20046;-90
2021/03/27 02:41:48;;;;;;;90.80;43.60;;;;;;;1.93;100.00;100500.72;5012845;28;20048;-88
2021/03/27 02:44:28;;;;;;;84.13;38.30;;;;;;;1.93;100.00;100502.44;5036131;28;20049;-89
2021/03/27 02:47:31;;;;;;;83.20;42.00;;;;;;;1.85;100.00;100496.25;5038557;28;20064;-89
2021/03/27 02:50:43;;;;;;;87.30;40.10;;;;;;;1.81;100.00;100497.09;5002591;28;20064;-88
2021/03/27 02:53:22;;;;;;;76.30;37.17;;;;;;;1.80;100.00;100500.56;5012949;28;20052;-88
2021/03/27 02:56:07;;;;;;;67.37;36.20;;;;;;;1.82;100.00;100491.03;5018683;28;20045;-88
2021/03/27 02:58:52;;;;;;;91.65;42.17;;;;;;;1.84;100.00;100484.09;5002916;28;20049;-89
2021/03/27 03:01:35;;;;;;;86.40;40.20;;;;;;;1.83;100.00;100485.81;5014202;28;20044;-89
2021/03/27 03:04:36;;;;;;;94.40;45.10;;;;;;;1.89;100.00;100485.03;4989430;28;20098;-88
2021/03/27 03:07:26;;;;;;;87.68;40.67;;;;;;;1.91;100.00;100483.31;4987974;28;20512;-88
2021/03/27 03:09:59;;;;;;;92.03;41.13;;;;;;;1.97;100.00;100486.00;5002655;28;20046;-88
2021/03/27 03:12:55;;;;;;;95.53;44.23;;;;;;;2.05;100.00;100478.28;5018385;28;20068;-87
2021/03/27 03:15:29;;;;;;;94.97;44.03;;;;;;;2.10;100.00;100474.88;4992219;28;20299;-88
2021/03/27 03:18:12;;;;;;;125.17;54.27;;;;;;;2.22;100.00;100476.72;5038459;28;20072;-88
2021/03/27 03:21:09;;;;;;;104.13;48.60;;;;;;;2.31;100.00;100465.50;5038177;28;20033;-88
2021/03/27 03:23:42;;;;;;;91.80;44.37;;;;;;;2.40;100.00;100465.59;5005575;28;20045;-90
2021/03/27 03:26:29;;;;;;;100.07;47.07;;;;;;;2.44;100.00;100465.66;5005529;28;20068;-89
2021/03/27 03:29:20;;;;;;;89.73;41.40;;;;;;;2.46;100.00;100463.06;5022252;28;20037;-89
2021/03/27 03:32:03;;;;;;;87.93;42.13;;;;;;;2.53;100.00;100451.81;5021496;28;20043;-89
2021/03/27 03:34:58;;;;;;;78.67;41.20;;;;;;;2.65;100.00;100464.09;5021575;28;20045;-89
2021/03/27 03:37:45;;;;;;;72.50;37.53;;;;;;;2.67;100.00;100457.13;5038100;28;20044;-88
2021/03/27 03:40:19;;;;;;;79.03;40.70;;;;;;;2.72;100.00;100464.16;5020709;28;20045;-89
2021/03/27 03:43:01;;;;;;;77.20;39.35;;;;;;;2.80;100.00;100446.81;5020280;28;20049;-89
2021/03/27 03:45:48;;;;;;;83.57;39.47;;;;;;;2.87;100.00;100455.56;5004360;28;20045;-88
2021/03/27 03:48:57;;;;;;;71.67;36.77;;;;;;;2.86;100.00;100445.09;5020867;28;20052;-88
2021/03/27 03:51:38;;;;;;;82.50;39.67;;;;;;;2.96;100.00;100439.13;5034180;28;20044;-87
2021/03/27 03:54:23;;;;;;;71.03;37.10;;;;;;;3.01;100.00;100440.00;5020718;28;20051;-87
2021/03/27 03:57:37;;;;;;;73.43;38.90;;;;;;;3.05;100.00;100418.28;5004996;28;20052;-88
2021/03/27 04:00:24;;;;;;;60.30;32.22;;;;;;;3.08;100.00;100420.91;4989728;28;20045;-87
2021/03/27 04:03:05;;;;;;;65.73;34.40;;;;;;;3.03;100.00;100410.47;5004897;28;20135;-86
2021/03/27 04:06:08;;;;;;;57.70;32.00;;;;;;;3.01;100.00;100417.38;5005353;28;20090;-87
2021/03/27 04:08:55;;;;;;;60.43;30.30;;;;;;;3.06;100.00;100417.41;4954469;28;20498;-86
2021/03/27 04:11:47;;;;;;;56.70;30.93;;;;;;;3.06;100.00;100417.41;5021663;28;20045;-87
2021/03/27 04:14:27;;;;;;;58.77;28.90;;;;;;;3.09;100.00;100409.59;5021404;28;20140;-88
2021/03/27 04:17:34;;;;;;;58.87;30.53;;;;;;;3.15;100.00;100403.56;5021924;28;20540;-86
2021/03/27 04:20:20;;;;;;;50.77;28.90;;;;;;;3.22;100.00;100406.22;5023407;28;20048;-87
2021/03/27 04:22:56;;;;;;;57.53;28.67;;;;;;;3.24;100.00;100401.84;5021876;28;20317;-87
2021/03/27 04:25:36;;;;;;;56.30;28.57;;;;;;;3.27;100.00;100401.84;5007904;28;20071;-86
2021/03/27 04:28:57;;;;;;;56.50;29.80;;;;;;;3.39;100.00;100404.53;5006155;28;20063;-88
2021/03/27 04:31:54;;;;;;;62.37;30.40;;;;;;;3.55;100.00;100407.22;4982627;28;20118;-87
2021/03/27 04:34:35;;;;;;;46.50;25.27;;;;;;;3.60;100.00;100415.94;4980529;28;20048;-86
2021/03/27 04:37:22;;;;;;;55.90;29.37;;;;;;;3.77;100.00;100423.84;5004542;28;20477;-87
2021/03/27 04:39:58;;;;;;;49.73;29.27;;;;;;;3.94;100.00;100429.97;5020583;28;20494;-88
2021/03/27 04:42:32;;;;;;;48.07;26.73;;;;;;;4.01;100.00;100425.66;5004171;28;20048;-88
2021/03/27 04:45:06;;;;;;;45.50;25.67;;;;;;;3.95;100.00;100427.41;5037113;28;20051;-87
2021/03/27 04:47:44;;;;;;;45.00;25.07;;;;;;;3.93;100.00;100421.28;5021046;28;20045;-87
2021/03/27 04:50:50;;;;;;;43.63;24.20;;;;;;;3.96;100.00;100428.28;5021567;28;20568;-86
2021/03/27 04:53:25;;;;;;;43.23;25.07;;;;;;;3.94;100.00;100430.84;5020061;28;20071;-87
2021/03/27 04:56:13;;;;;;;43.10;25.77;;;;;;;3.94;100.00;100430.84;5004337;28;20080;-86
2021/03/27 04:58:58;;;;;;;43.28;24.30;;;;;;;3.92;100.00;100423.88;5006082;28;20045;-87
2021/03/27 05:02:03;;;;;;;40.17;24.57;;;;;;;3.92;100.00;100422.16;5021187;28;20126;-86
2021/03/27 05:05:04;;;;;;;42.13;24.93;;;;;;;3.89;100.00;100424.75;5020600;28;20055;-87
2021/03/27 05:07:38;;;;;;;40.73;24.40;;;;;;;3.90;100.00;100425.63;5004706;28;20051;-87
2021/03/27 05:10:31;;;;;;;40.90;23.83;;;;;;;3.82;100.00;100417.75;5018494;28;20089;-86
2021/03/27 05:13:16;;;;;;;38.37;23.57;;;;;;;3.76;100.00;100415.13;5031532;28;20493;-87
2021/03/27 05:15:48;;;;;;;;;;;;;;;3.75;100.00;100408.16;5004646;28;20105;-87
2021/03/27 05:18:39;;;;;;;37.53;21.77;;;;;;;3.68;100.00;100406.38;5005946;28;19921;-87
2021/03/27 05:21:36;;;;;;;34.47;20.57;;;;;;;3.67;100.00;100409.88;5027134;28;20045;-86
2021/03/27 05:24:53;;;;;;;37.20;21.53;;;;;;;3.59;100.00;100399.41;5019709;28;20041;-86
2021/03/27 05:27:51;;;;;;;42.30;24.40;;;;;;;3.59;100.00;100407.22;5035158;28;20040;-88
2021/03/27 05:30:37;;;;;;;36.77;22.10;;;;;;;3.65;100.00;100411.63;5019208;28;20081;-87
2021/03/27 05:33:07;;;;;;;47.10;25.13;;;;;;;3.74;100.00;100414.25;5002471;28;20044;-87
2021/03/27 05:36:01;;;;;;;37.83;22.83;;;;;;;3.80;100.00;100405.56;5018559;28;20056;-86
2021/03/27 05:39:01;;;;;;;39.77;22.20;;;;;;;3.80;100.00;100400.34;5002843;28;20045;-86
2021/03/27 05:41:40;;;;;;;37.60;23.47;;;;;;;3.76;100.00;100407.28;5019443;28;20072;-87
2021/03/27 05:44:33;;;;;;;39.00;22.20;;;;;;;3.78;100.00;100405.53;5019171;28;20136;-87
2021/03/27 05:47:18;;;;;;;39.13;22.52;;;;;;;3.82;100.00;100401.22;5034807;28;20045;-86
2021/03/27 05:50:01;;;;;;;42.78;24.58;;;;;;;3.91;100.00;100399.50;5034959;28;20044;-88
2021/03/27 05:53:31;;;;;;;40.10;21.63;;;;;;;4.05;100.00;100404.75;5018833;28;20098;-89
2021/03/27 05:56:26;;;;;;;41.13;23.27;;;;;;;4.24;100.00;100395.19;4973296;28;20165;-87
2021/03/27 05:59:01;;;;;;;36.63;21.57;;;;;;;4.37;100.00;100390.81;5019177;28;20491;-87
2021/03/27 06:02:05;;;;;;;37.77;22.90;;;;;;;4.53;100.00;100382.13;5018512;28;20040;-87
2021/03/27 06:04:51;;;;;;;36.20;20.58;;;;;;;4.76;100.00;100384.72;5034781;28;20045;-87
2021/03/27 06:07:24;;;;;;;34.57;20.50;;;;;;;5.01;100.00;100380.31;5018707;28;20052;-87
2021/03/27 06:10:21;;;;;;;37.70;20.60;;;;;;;5.28;100.00;100376.72;5020094;28;20135;-87
2021/03/27 06:13:25;;;;;;;36.57;21.87;;;;;;;5.59;99.45;100375.75;5039873;28;20044;-88
2021/03/27 06:16:08;;;;;;;35.07;19.87;;;;;;;5.83;98.47;100368.63;5023218;28;20048;-88
2021/03/27 06:18:53;;;;;;;34.83;19.97;;;;;;;6.09;96.81;100374.59;5022412;28;20040;-87
2021/03/27 06:22:00;;;;;;;35.77;20.37;;;;;;;6.41;94.71;100370.88;5022984;28;20091;-87
2021/03/27 06:24:53;;;;;;;32.47;19.23;;;;;;;6.73;91.68;100365.34;5023708;28;20114;-86
2021/03/27 06:27:39;;;;;;;32.00;19.00;;;;;;;6.93;90.60;100357.28;5023582;28;20140;-87
2021/03/27 06:30:22;;;;;;;51.37;31.70;;;;;;;7.17;89.84;100358.75;5039606;28;20132;-88
2021/03/27 06:32:57;;;;;;;34.83;20.50;;;;;;;7.71;87.56;100359.81;5022917;28;20395;-87
2021/03/27 06:35:47;;;;;;;31.00;18.33;;;;;;;8.26;81.63;100361.66;5022357;28;20136;-87
2021/03/27 06:38:21;;;;;;;32.20;19.77;;;;;;;8.63;81.06;100355.81;5006113;28;20045;-87
2021/03/27 06:41:13;;;;;;;25.60;16.58;;;;;;;9.07;79.21;100362.03;5023351;28;20541;-88
2021/03/27 06:44:04;;;;;;;23.87;15.90;;;;;;;9.25;77.57;100357.28;5005986;28;20069;-88
2021/03/27 06:46:49;;;;;;;27.52;17.15;;;;;;;9.72;76.04;100352.78;5022349;28;20095;-87
2021/03/27 06:49:54;;;;;;;25.20;16.33;;;;;;;9.98;73.86;100353.94;5006873;28;20543;-87
2021/03/27 06:53:10;;;;;;;24.85;16.20;;;;;;;10.36;71.25;100347.81;5004461;28;20041;-87
2021/03/27 06:56:03;;;;;;;23.55;15.38;;;;;;;10.15;71.08;100355.28;5008278;28;20513;-86
2021/03/27 06:58:37;;;;;;;24.48;15.38;;;;;;;10.00;71.25;100353.00;5023232;28;22088;-87
2021/03/27 07:01:32;;;;;;;24.42;15.07;;;;;;;9.78;71.82;100349.13;5022635;28;20041;-88
2021/03/27 07:04:36;;;;;;;23.17;14.02;;;;;;;9.83;71.97;100360.44;5038661;28;20421;-87
2021/03/27 07:07:12;;;;;;;22.98;15.65;;;;;;;9.90;70.99;100358.53;5024730;28;20149;-87
2021/03/27 07:10:08;;;;;;;24.10;15.25;;;;;;;9.96;70.57;100372.47;5042536;28;20040;-88
2021/03/27 07:12:53;;;;;;;18.40;13.15;;;;;;;10.05;69.90;100371.38;5008023;28;20037;-88
2021/03/27 07:15:54;;;;;;;20.67;14.05;;;;;;;10.12;69.10;100363.28;5023780;28;20052;-89
2021/03/27 07:18:28;;;;;;;19.35;12.48;;;;;;;10.71;66.84;100366.28;5026910;28;20025;-91
2021/03/27 07:21:29;;;;;;;17.80;12.35;;;;;;;11.66;63.29;100361.00;5027380;28;20068;-89
2021/03/27 07:24:14;;;;;;;19.38;12.90;;;;;;;11.81;62.63;100372.94;5026709;28;20147;-88
2021/03/27 07:26:43;;;;;;;18.52;12.68;;;;;;;11.54;63.30;100359.59;5022928;28;20045;-88
2021/03/27 07:29:51;;;;;;;16.38;11.45;;;;;;;11.19;63.37;100365.88;5022481;28;20502;-88
2021/03/27 07:32:31;;;;;;;15.25;11.38;;;;;;;10.90;64.28;100376.38;5020791;28;20048;-88
2021/03/27 07:34:58;;;;;;;21.00;12.88;;;;;;;10.58;65.88;100375.41;5021309;28;20192;-87
2021/03/27 07:37:52;;;;;;;17.00;12.57;;;;;;;10.41;66.16;100393.44;5020941;28;20051;-88
2021/03/27 07:40:25;;;;;;;19.60;13.43;;;;;;;10.21;67.27;100395.66;5021343;28;20052;-87
2021/03/27 07:43:11;;;;;;;19.25;13.77;;;;;;;10.09;68.20;100402.97;5020850;28;20143;-87
2021/03/27 07:45:52;;;;;;;18.45;13.82;;;;;;;10.11;69.07;100402.94;5021348;28;20519;-88
2021/03/27 07:48:27;;;;;;;18.02;13.90;;;;;;;10.09;69.56;100420.59;5021388;28;20402;-86
2021/03/27 07:51:10;;;;;;;20.33;13.68;;;;;;;10.11;70.75;100424.06;5017152;28;20037;-87
2021/03/27 07:53:52;;;;;;;16.70;12.23;;;;;;;10.08;71.66;100422.31;5004344;28;20416;-88
2021/03/27 07:56:36;;;;;;;19.33;12.23;;;;;;;9.97;71.12;100440.19;5017775;28;20453;-87
2021/03/27 07:59:28;;;;;;;17.23;12.43;;;;;;;9.88;72.36;100443.00;5004411;28;20049;-88
2021/03/27 08:02:04;;;;;;;17.23;11.90;;;;;;;9.71;75.86;100451.28;5019506;28;20587;-88
2021/03/27 08:04:49;;;;;;;18.65;13.48;;;;;;;9.57;77.21;100466.50;5020041;28;20102;-87
2021/03/27 08:07:15;;;;;;;17.90;12.68;;;;;;;9.48;76.78;100471.94;5037444;28;20049;-88
2021/03/27 08:10:04;;;;;;;18.60;12.85;;;;;;;9.44;76.76;100476.44;5037104;28;20049;-88
2021/03/27 08:13:01;;;;;;;18.63;12.05;;;;;;;9.33;77.89;100483.66;5020342;28;20043;-87
2021/03/27 08:15:43;;;;;;;19.58;12.65;;;;;;;9.17;81.06;100503.28;5004463;28;20045;-87
2021/03/27 08:18:41;;;;;;;17.65;11.75;;;;;;;8.92;83.63;100505.47;5004452;28;20048;-88
2021/03/27 08:21:44;;;;;;;18.02;12.30;;;;;;;8.63;86.92;100524.34;5004252;28;20037;-88
2021/03/27 08:24:29;;;;;;;19.83;12.50;;;;;;;8.43;88.51;100525.50;5019754;28;20045;-89
2021/03/27 08:27:13;;;;;;;18.73;12.35;;;;;;;8.26;91.08;100547.66;5020285;28;20045;-88
2021/03/27 08:29:58;;;;;;;18.08;12.77;;;;;;;8.01;93.73;100561.09;5021139;28;20108;-88
2021/03/27 08:32:50;;;;;;;17.70;12.50;;;;;;;7.79;96.57;100578.88;5020267;28;20124;-88
2021/03/27 08:35:22;;;;;;;17.33;12.10;;;;;;;7.68;96.60;100582.50;5019834;28;20103;-89
2021/03/27 08:37:55;;;;;;;20.07;13.90;;;;;;;7.50;98.32;100591.44;5020181;28;20102;-88
2021/03/27 08:40:42;;;;;;;20.87;13.80;;;;;;;7.42;100.00;100607.28;5035641;28;20052;-88
2021/03/27 08:43:23;;;;;;;20.87;13.90;;;;;;;7.46;98.55;100613.38;4987719;28;20068;-88
2021/03/27 08:46:02;;;;;;;17.80;12.03;;;;;;;7.33;99.29;100637.13;5019757;28;20556;-90
2021/03/27 08:48:47;;;;;;;17.30;9.90;;;;;;;7.13;100.00;100653.91;5019457;28;20041;-88
2021/03/27 08:51:26;;;;;;;10.53;7.30;;;;;;;6.90;100.00;100656.69;5035486;28;20047;-88
2021/03/27 08:54:26;;;;;;;10.07;7.63;;;;;;;6.75;100.00;100669.00;5035548;28;20620;-88
2021/03/27 08:57:20;;;;;;;11.00;6.37;;;;;;;6.63;100.00;100662.94;5018805;28;20051;-89
2021/03/27 09:00:34;;;;;;;3.70;2.80;;;;;;;6.37;100.00;100649.91;5018739;28;20045;-88
2021/03/27 11:14:46;;;;;;;3.33;2.20;;;;;;;9.50;83.77;100887.72;5029495;28;20083;-89
2021/03/27 11:18:20;;;;;;;2.80;2.28;;;;;;;8.97;82.79;100890.94;5030178;28;20041;-91
2021/03/27 11:21:10;;;;;;;5.43;2.53;;;;;;;9.52;80.83;100893.84;4933280;28;20404;-89
2021/03/27 11:28:15;;;;;;;3.25;2.50;;;;;;;10.07;74.01;100881.66;5034604;28;20547;-89
2021/03/27 11:30:58;;;;;;;2.53;1.70;;;;;;;11.54;70.14;100893.19;4985875;28;20037;-90
2021/03/27 11:37:43;;;;;;;2.40;1.70;;;;;;;13.91;57.92;100876.53;5025598;28;20029;-89
2021/03/27 11:40:34;;;;;;;5.20;4.00;;;;;;;14.46;56.43;100893.41;5029033;28;20140;-88
2021/03/27 11:43:25;;;;;;;3.60;2.33;;;;;;;13.46;54.11;100892.94;5028996;28;20111;-89
2021/03/27 11:46:06;;;;;;;2.85;1.75;;;;;;;13.33;58.85;100902.13;5026075;28;20041;-88
2021/03/27 11:48:55;;;;;;;2.67;1.67;;;;;;;13.50;57.84;100903.41;5015433;28;20042;-88
2021/03/27 11:51:37;;;;;;;2.22;1.67;;;;;;;14.29;57.18;100910.75;4999852;28;20057;-88
2021/03/27 11:54:41;;;;;;;2.08;1.48;;;;;;;15.47;50.00;100912.94;5031645;28;20073;-87
2021/03/27 11:57:28;;;;;;;2.83;1.90;;;;;;;14.44;49.15;100921.81;5012508;28;20413;-87
2021/03/27 12:03:36;;;;;;;4.85;1.80;;;;;;;11.52;55.82;100937.34;5016806;28;20136;-88
2021/03/27 12:06:27;;;;;;;5.22;2.03;;;;;;;10.63;56.15;100938.06;5024844;28;20044;-87
2021/03/27 12:09:31;;;;;;;3.47;2.22;;;;;;;12.27;51.72;100939.25;5009934;28;20148;-87
2021/03/27 12:12:00;;;;;;;2.33;1.80;;;;;;;12.86;47.30;100936.97;5012159;28;20045;-87
2021/03/27 12:14:41;;;;;;;3.20;1.80;;;;;;;13.29;47.76;100930.56;4993456;28;20052;-90
2021/03/27 12:17:35;;;;;;;3.03;1.95;;;;;;;13.81;46.11;100923.75;5006983;28;20053;-88
2021/03/27 12:20:26;;;;;;;4.28;1.80;;;;;;;14.33;42.99;100933.66;5024374;28;20054;-88
2021/03/27 12:23:02;;;;;;;5.68;2.70;;;;;;;13.48;44.90;100928.25;4991171;28;20132;-90
2021/03/27 12:26:03;;;;;;;2.72;1.83;;;;;;;14.14;47.14;100913.91;4991996;28;20368;-89
2021/03/27 12:28:50;;;;;;;6.00;2.10;;;;;;;15.17;43.09;100916.69;4989305;28;20053;-89
2021/03/27 12:31:38;;;;;;;3.25;1.90;;;;;;;15.12;41.53;100914.19;4997730;28;20152;-90
2021/03/27 12:34:27;;;;;;;2.53;1.58;;;;;;;13.12;45.59;100935.41;5025891;28;20054;-87
2021/03/27 12:37:04;;;;;;;3.05;1.90;;;;;;;12.91;45.56;100918.25;5012434;28;20063;-89
2021/03/27 12:39:47;;;;;;;3.83;2.00;;;;;;;11.87;48.18;100927.81;4993220;28;20081;-88
2021/03/27 12:42:21;;;;;;;7.57;2.00;;;;;;;11.36;50.62;100930.59;4989690;28;20042;-88
2021/03/27 12:44:55;;;;;;;4.65;2.78;;;;;;;11.20;52.59;100936.16;5008244;28;20056;-89
2021/03/27 12:47:30;;;;;;;5.40;2.47;;;;;;;11.16;51.49;100926.53;5011987;28;20045;-87
2021/03/27 12:50:09;;;;;;;5.55;2.67;;;;;;;12.25;46.95;100926.94;4991864;28;20045;-89
2021/03/27 12:53:04;;;;;;;5.13;2.38;;;;;;;13.28;48.11;100933.22;4993947;28;20482;-89
2021/03/27 12:55:34;;;;;;;4.45;2.25;;;;;;;13.64;45.07;100924.25;5028837;28;20121;-89
2021/03/27 12:58:25;;;;;;;3.42;2.45;;;;;;;13.36;44.76;100939.19;5011376;28;20077;-90
2021/03/27 13:00:55;;;;;;;3.45;1.98;;;;;;;12.70;50.06;100932.94;5006919;28;20168;-89
2021/03/27 13:03:34;;;;;;;4.20;1.92;;;;;;;12.18;49.14;100938.59;5027077;28;20045;-88
2021/03/27 13:06:23;;;;;;;5.22;2.17;;;;;;;11.13;50.54;100934.53;5011154;28;20060;-88
2021/03/27 13:09:08;;;;;;;3.85;1.92;;;;;;;10.58;52.46;100931.97;5010695;28;20062;-89
2021/03/27 13:11:44;;;;;;;4.03;1.95;;;;;;;10.40;53.49;100933.13;5011695;28;20326;-89
2021/03/27 13:14:45;;;;;;;4.75;2.10;;;;;;;10.06;54.25;100949.41;4994894;28;20091;-89
2021/03/27 13:17:19;;;;;;;3.95;2.13;;;;;;;9.84;56.89;100954.13;5011096;28;20041;-90
2021/03/27 13:19:56;;;;;;;5.20;2.50;;;;;;;9.12;64.36;100998.88;5011376;28;20098;-88
2021/03/27 13:22:40;;;;;;;4.55;3.00;;;;;;;8.44;68.40;101006.41;4992742;28;20040;-89
2021/03/27 13:25:30;;;;;;;4.38;3.45;;;;;;;7.79;73.41;101031.25;5002181;28;20056;-88
2021/03/27 13:28:02;;;;;;;5.73;3.60;;;;;;;7.14;79.44;101040.13;5009549;28;20061;-89
2021/03/27 13:30:37;;;;;;;5.10;2.90;;;;;;;6.66;81.35;101047.09;5010626;28;20102;-90
2021/03/27 13:33:54;;;;;;;5.00;3.13;;;;;;;6.31;80.09;101049.66;5013159;28;20049;-88
2021/03/27 13:36:34;;;;;;;6.53;3.90;;;;;;;6.16;81.72;101042.59;5031281;28;20045;-89
2021/03/27 13:39:22;;;;;;;4.67;2.90;;;;;;;5.98;81.74;101037.28;4997093;28;20517;-88
2021/03/27 13:42:27;;;;;;;6.60;3.93;;;;;;;6.39;83.26;101041.78;5010682;28;20082;-89
2021/03/27 13:45:14;;;;;;;5.73;2.47;;;;;;;7.36;81.63;101034.84;5041555;28;20041;-89
2021/03/27 13:47:48;;;;;;;3.63;2.23;;;;;;;8.11;78.15;101028.50;5027002;28;20563;-89
2021/03/27 13:50:20;;;;;;;5.57;2.92;;;;;;;8.22;74.36;101025.81;4990758;28;20070;-89
2021/03/27 13:52:52;;;;;;;4.23;3.00;;;;;;;7.89;72.81;101034.72;5013987;28;20140;-89
2021/03/27 13:55:27;;;;;;;11.40;4.30;;;;;;;7.93;73.67;101031.22;5009804;28;20046;-88
2021/03/27 13:58:19;;;;;;;3.90;2.30;;;;;;;8.46;71.87;101035.38;4993791;28;20049;-88
2021/03/27 14:01:07;;;;;;;3.47;1.85;;;;;;;9.17;69.52;101039.25;5009843;28;20461;-88
2021/03/27 14:03:47;;;;;;;2.42;1.77;;;;;;;9.77;67.95;101042.16;5018697;28;20056;-88
2021/03/27 14:06:20;;;;;;;3.28;2.08;;;;;;;9.85;65.82;101042.97;4988885;28;20312;-90
2021/03/27 14:09:05;;;;;;;4.28;2.88;;;;;;;9.47;67.02;101031.94;5020850;28;20042;-89
2021/03/27 14:11:36;;;;;;;;;;;;;;;8.87;68.62;101053.53;5025678;28;20417;-88
2021/03/27 14:14:09;;;;;;;4.93;2.85;;;;;;;8.64;70.19;101058.06;5009393;28;20031;-89
2021/03/27 14:16:54;;;;;;;3.70;2.30;;;;;;;8.26;70.60;101064.41;4993016;28;20042;-88
2021/03/27 14:19:44;;;;;;;3.38;2.20;;;;;;;7.92;71.02;101075.94;5026093;28;20053;-87
2021/03/27 14:23:07;;;;;;;3.20;2.50;;;;;;;8.10;71.00;101083.78;5026177;28;20850;-90
2021/03/27 14:26:11;;;;;;;2.67;1.80;;;;;;;8.18;72.48;101088.13;4978385;28;20061;-88
2021/03/27 14:28:56;;;;;;;2.53;1.48;;;;;;;8.00;70.48;101097.84;4959855;28;20642;-89
2021/03/27 14:31:37;;;;;;;;;;;;;;;7.70;72.08;101098.78;4999275;28;20045;-89
2021/03/27 14:34:21;;;;;;;2.10;1.30;;;;;;;7.36;71.60;101109.31;4989925;28;19929;-89
2021/03/27 14:37:17;;;;;;;2.03;1.40;;;;;;;7.10;72.78;101111.06;5021204;28;20060;-89
2021/03/27 14:40:02;;;;;;;1.83;1.17;;;;;;;7.19;74.36;101119.84;4977813;28;20141;-89
2021/03/27 14:42:51;;;;;;;2.47;1.30;;;;;;;7.37;73.02;101124.22;5010045;28;20048;-89
2021/03/27 14:45:40;;;;;;;1.70;1.10;;;;;;;7.31;74.08;101126.81;5014215;28;20383;-90
2021/03/27 14:48:24;;;;;;;2.43;1.30;;;;;;;7.24;76.13;101131.22;4996675;28;20509;-89
2021/03/27 14:50:57;;;;;;;2.63;1.73;;;;;;;7.34;73.06;101143.50;5002034;28;20045;-89
2021/03/27 14:53:53;;;;;;;4.07;1.87;;;;;;;6.92;74.28;101135.56;5011217;28;20114;-88
2021/03/27 14:56:34;;;;;;;3.00;1.47;;;;;;;6.64;75.85;101148.63;4994201;28;20041;-88
2021/03/27 14:59:09;;;;;;;5.30;2.67;;;;;;;6.58;76.46;101147.72;4998327;28;20128;-89
2021/03/27 15:01:47;;;;;;;4.03;1.60;;;;;;;6.31;77.47;101151.13;5010952;28;20044;-88
2021/03/27 15:04:52;;;;;;;4.13;1.90;;;;;;;5.97;77.74;101142.16;4996914;28;20049;-88
2021/03/27 15:07:22;;;;;;;1.33;1.20;;;;;;;5.91;77.60;101164.88;5006630;28;20052;-88
2021/03/27 15:10:19;;;;;;;2.27;1.33;;;;;;;5.80;78.29;101168.22;5015611;28;20429;-88
2021/03/27 15:12:55;;;;;;;2.57;1.30;;;;;;;5.77;78.49;101173.47;5012686;28;20041;-88
2021/03/27 15:15:27;;;;;;;3.10;1.17;;;;;;;5.71;78.49;101166.41;4997821;28;20061;-89
2021/03/27 15:18:17;;;;;;;2.13;1.57;;;;;;;5.73;79.51;101185.69;5010501;28;20064;-87
2021/03/27 15:20:57;;;;;;;2.20;1.30;;;;;;;5.72;78.26;101180.41;5012835;28;20132;-88
2021/03/27 15:23:50;;;;;;;3.03;1.57;;;;;;;5.78;77.78;101188.31;5001280;28;20057;-88
2021/03/27 15:29:40;;;;;;;3.00;1.40;;;;;;;5.67;78.65;101190.00;5002801;28;20506;-89
2021/03/27 15:32:40;;;;;;;2.30;1.20;;;;;;;5.62;76.99;101190.81;4991217;28;20034;-88
2021/03/27 15:35:09;;;;;;;3.33;1.50;;;;;;;5.63;77.00;101183.84;4994735;28;20045;-88
2021/03/27 15:37:44;;;;;;;3.80;1.40;;;;;;;5.63;77.58;101186.47;5010412;28;20047;-88
2021/03/27 15:40:21;;;;;;;3.80;1.50;;;;;;;5.49;76.27;101194.22;4992322;28;20045;-88
2021/03/27 15:42:53;;;;;;;2.33;1.20;;;;;;;5.42;76.65;101196.78;4995382;28;20050;-88